Time;durP1;ratioP1;P1;durP2;ratioP2;P2;SDS_P1;SDS_P2;PMS_P1;PMS_P2;Temp;Humidity;BMP_temperature;BMP_pressure;BME280_temperature;BME280_humidity;BME280_pressure;Samples;Min_cycle;Max_cycle;Signal;HPM_P1;HPM_P2
2024/01/15 00:01:53;;;;;;;;;32.75;27.75;;;;;3.46;68.79;100402.84;5125270;27;61783;-78
2024/01/15 00:04:18;;;;;;;;;30.25;28.25;;;;;3.46;68.39;100394.09;5119072;27;45830;-77
2024/01/15 00:06:43;;;;;;;;;35.75;29.75;;;;;3.47;68.20;100401.94;5118233;27;45423;-78
2024/01/15 00:09:09;;;;;;;;;34.25;30.25;;;;;3.43;68.84;100384.53;5118288;27;45562;-84
2024/01/15 00:11:34;;;;;;;;;25.75;25.25;;;;;3.40;68.30;100373.28;5119084;27;57601;-83
2024/01/15 00:13:59;;;;;;;;;31.50;24.50;;;;;3.46;68.61;100384.44;5119818;27;45333;-82
2024/01/15 00:16:25;;;;;;;;;40.25;32.50;;;;;3.43;68.32;100373.16;5117286;27;45486;-77
2024/01/15 00:18:50;;;;;;;;;36.25;34.25;;;;;3.38;68.87;100362.78;5118538;27;45333;-77
2024/01/15 00:21:15;;;;;;;;;26.25;22.75;;;;;3.35;69.39;100362.88;5119594;27;45992;-82
2024/01/15 00:23:44;;;;;;;;;35.25;28.00;;;;;3.24;69.27;100355.31;5137584;27;45230;-82
2024/01/15 00:26:10;;;;;;;;;35.50;28.75;;;;;3.38;68.88;100365.41;5118671;27;45542;-79
2024/01/15 00:28:38;;;;;;;;;35.25;29.75;;;;;3.39;69.33;100371.56;5117467;27;45603;-84
2024/01/15 00:31:06;;;;;;;;;38.00;32.00;;;;;3.37;69.25;100362.81;5117899;27;45338;-80
2024/01/15 00:33:31;;;;;;;;;25.75;25.00;;;;;3.31;69.51;100363.03;5137414;27;45395;-80
2024/01/15 00:35:57;;;;;;;;;36.50;26.00;;;;;3.38;68.58;100354.88;5135150;27;45271;-78
2024/01/15 00:38:22;;;;;;;;;32.25;22.75;;;;;3.49;69.38;100357.19;5121274;27;50559;-79
2024/01/15 00:40:48;;;;;;;;;28.25;26.50;;;;;3.51;69.10;100350.97;5119773;27;45223;-81
2024/01/15 00:43:13;;;;;;;;;26.00;23.50;;;;;3.50;69.04;100344.00;5131673;27;45262;-77
2024/01/15 00:45:38;;;;;;;;;38.00;26.75;;;;;3.53;69.32;100348.31;5126876;27;45428;-79
2024/01/15 00:48:04;;;;;;;;;28.00;23.50;;;;;3.57;69.11;100349.09;5119748;27;45281;-78
2024/01/15 00:50:30;;;;;;;;;33.25;30.25;;;;;3.57;69.31;100344.69;5133164;27;45386;-77
2024/01/15 00:52:55;;;;;;;;;33.25;27.75;;;;;3.52;69.05;100336.09;5139441;27;45362;-77
2024/01/15 00:55:20;;;;;;;;;34.25;28.75;;;;;3.58;69.46;100330.63;5123345;27;45315;-79
2024/01/15 00:57:46;;;;;;;;;29.00;26.50;;;;;3.64;68.96;100317.28;5122511;27;45574;-80
2024/01/15 01:00:11;;;;;;;;;31.25;26.50;;;;;3.75;68.87;100327.44;5121722;27;45423;-75
2024/01/15 01:02:37;;;;;;;;;32.75;29.00;;;;;3.78;68.52;100322.97;5132790;27;45499;-79
2024/01/15 01:05:03;;;;;;;;;24.75;23.00;;;;;3.76;69.08;100318.66;5122242;27;45367;-77
2024/01/15 01:07:28;;;;;;;;;31.00;24.50;;;;;3.69;68.99;100312.75;5122478;27;45239;-79
2024/01/15 01:09:55;;;;;;;;;36.75;31.00;;;;;3.70;69.18;100329.38;5105045;27;45535;-77
2024/01/15 01:12:20;;;;;;;;;32.50;25.25;;;;;3.69;69.12;100332.91;5123157;27;45191;-77
2024/01/15 01:14:45;;;;;;;;;33.00;24.75;;;;;3.61;69.57;100314.75;5120726;27;45160;-77
2024/01/15 01:17:10;;;;;;;;;33.25;30.50;;;;;3.67;69.61;100313.72;5121841;27;45218;-78
2024/01/15 01:19:36;;;;;;;;;25.75;19.25;;;;;3.74;69.66;100325.72;5121053;27;45223;-78
2024/01/15 01:22:01;;;;;;;;;36.75;26.75;;;;;3.66;69.62;100317.25;5121023;27;45306;-80
2024/01/15 01:24:27;;;;;;;;;26.75;21.25;;;;;3.74;68.98;100325.72;5123352;27;45370;-78
2024/01/15 01:26:52;;;;;;;;;32.25;28.00;;;;;3.70;69.57;100313.59;5122763;27;45514;-87
2024/01/15 01:29:17;;;;;;;;;36.75;27.50;;;;;3.81;69.12;100303.59;5129631;27;45379;-80
2024/01/15 01:31:46;;;;;;;;;30.25;28.00;;;;;3.87;68.89;100302.53;5140959;27;62087;-82
2024/01/15 01:34:16;;;;;;;;;27.25;24.75;;;;;3.90;68.92;100303.28;5121221;27;45403;-80
2024/01/15 01:36:42;;;;;;;;;27.75;24.25;;;;;3.86;69.52;100293.75;5142770;27;45421;-78
2024/01/15 01:39:07;;;;;;;;;27.00;22.25;;;;;3.87;69.46;100298.13;5141665;27;45420;-80
2024/01/15 01:41:33;;;;;;;;;29.25;25.25;;;;;3.84;69.41;100296.44;5123157;27;45369;-80
2024/01/15 01:43:58;;;;;;;;;27.50;26.50;;;;;3.87;69.52;100298.13;5141834;27;45234;-83
2024/01/15 01:46:25;;;;;;;;;32.25;28.00;;;;;3.77;69.36;100283.53;5142672;27;45415;-78
2024/01/15 01:48:52;;;;;;;;;30.50;22.25;;;;;3.89;69.12;100303.31;5142382;27;46054;-82
2024/01/15 01:51:18;;;;;;;;;28.00;25.00;;;;;3.85;69.97;100292.91;5124110;27;45348;-81
2024/01/15 01:53:45;;;;;;;;;27.25;27.25;;;;;3.85;69.81;100290.28;5120329;27;45412;-79
2024/01/15 01:56:11;;;;;;;;;28.75;27.00;;;;;3.89;69.21;100295.44;5120742;27;45168;-80
2024/01/15 01:58:36;;;;;;;;;34.00;22.50;;;;;3.86;69.65;100288.50;5127798;27;46383;-79
2024/01/15 02:01:02;;;;;;;;;24.50;23.75;;;;;3.82;69.66;100292.16;5139522;27;45317;-80
2024/01/15 02:03:28;;;;;;;;;33.75;21.50;;;;;3.82;70.65;100286.91;5128458;27;45650;-78
2024/01/15 02:05:53;;;;;;;;;28.25;26.00;;;;;3.72;69.84;100260.03;5120165;27;45218;-78
2024/01/15 02:08:20;;;;;;;;;28.00;21.00;;;;;3.84;70.07;100274.56;5119614;27;57427;-80
2024/01/15 02:10:45;;;;;;;;;28.25;24.25;;;;;3.81;69.96;100266.78;5120405;27;46231;-77
2024/01/15 02:13:11;;;;;;;;;31.00;26.25;;;;;3.72;70.37;100253.91;5119848;27;53519;-82
2024/01/15 02:15:36;;;;;;;;;35.75;25.50;;;;;3.74;69.68;100250.31;5102044;27;45614;-78
2024/01/15 02:18:07;;;;;;;;;27.00;24.50;;;;;3.75;69.92;100240.66;5120991;27;47187;-80
2024/01/15 02:20:33;;;;;;;;;29.75;26.00;;;;;3.77;70.18;100241.47;5121371;27;45325;-79
2024/01/15 02:23:09;;;;;;;;;34.00;30.00;;;;;3.66;70.05;100233.09;5135581;27;45457;-79
2024/01/15 02:25:35;;;;;;;;;28.50;27.00;;;;;3.63;70.62;100227.91;5119783;27;45475;-79
2024/01/15 02:28:01;;;;;;;;;30.75;28.25;;;;;3.57;71.00;100233.41;5103740;27;47228;-80
2024/01/15 02:30:28;;;;;;;;;31.50;24.75;;;;;3.54;70.73;100237.84;5118924;27;45521;-79
2024/01/15 02:32:53;;;;;;;;;34.25;23.00;;;;;3.59;70.90;100248.19;5121433;27;45317;-84
2024/01/15 02:35:19;;;;;;;;;30.50;27.50;;;;;3.66;70.52;100255.00;5120274;27;45580;-78
2024/01/15 02:37:44;;;;;;;;;26.25;23.75;;;;;3.60;70.58;100264.84;5119513;27;46016;-82
2024/01/15 02:40:10;;;;;;;;;29.00;27.00;;;;;3.64;71.18;100276.97;5118662;27;59078;-77
2024/01/15 02:42:35;;;;;;;;;28.50;23.75;;;;;3.63;70.88;100264.72;5118576;27;45309;-81
2024/01/15 02:45:00;;;;;;;;;30.75;23.00;;;;;3.66;70.81;100264.66;5118488;27;45560;-78
2024/01/15 02:47:26;;;;;;;;;26.00;20.00;;;;;3.75;70.64;100269.59;5119099;27;45293;-81
2024/01/15 02:49:51;;;;;;;;;32.25;25.50;;;;;3.80;70.47;100265.06;5118695;27;45283;-77
2024/01/15 02:52:17;;;;;;;;;31.75;23.25;;;;;3.86;70.84;100256.94;5119016;27;45985;-78
2024/01/15 02:54:42;;;;;;;;;21.25;18.75;;;;;3.92;70.54;100254.13;5134896;27;45455;-78
2024/01/15 02:57:07;;;;;;;;;36.00;27.25;;;;;3.85;69.82;100234.19;5126503;27;45510;-77
2024/01/15 02:59:32;;;;;;;;;23.00;20.75;;;;;4.04;70.27;100248.44;5132374;27;45469;-78
2024/01/15 03:01:58;;;;;;;;;33.75;23.00;;;;;4.03;70.12;100264.25;5118284;27;57173;-79
2024/01/15 03:04:23;;;;;;;;;23.75;18.25;;;;;3.93;70.53;100258.47;5120222;27;45599;-80
2024/01/15 03:06:48;;;;;;;;;27.00;24.00;;;;;3.79;70.98;100239.66;5119016;27;45998;-80
2024/01/15 03:09:14;;;;;;;;;31.00;22.00;;;;;3.91;70.74;100257.66;5118347;27;45312;-78
2024/01/15 03:11:39;;;;;;;;;25.00;22.25;;;;;3.94;70.34;100254.91;5123670;27;52109;-76
2024/01/15 03:14:04;;;;;;;;;24.00;23.00;;;;;3.92;71.14;100259.38;5117545;27;45568;-77
2024/01/15 03:16:30;;;;;;;;;25.75;20.75;;;;;3.85;71.32;100266.59;5117290;27;45914;-76
2024/01/15 03:18:55;;;;;;;;;27.50;22.75;;;;;3.67;72.12;100267.22;5133515;27;45289;-77
2024/01/15 03:21:20;;;;;;;;;28.25;25.25;;;;;3.48;72.59;100280.09;5119552;27;45359;-78
2024/01/15 03:23:46;;;;;;;;;29.50;26.50;;;;;3.33;73.42;100274.47;5128477;27;45483;-77
2024/01/15 03:26:11;;;;;;;;;20.50;20.00;;;;;3.21;74.13;100283.59;5117431;27;46124;-78
2024/01/15 03:28:36;;;;;;;;;24.25;22.00;;;;;3.19;74.14;100280.16;5124923;27;47903;-77
2024/01/15 03:31:02;;;;;;;;;25.00;20.75;;;;;3.24;73.75;100275.59;5138972;27;45473;-76
2024/01/15 03:33:27;;;;;;;;;29.50;22.50;;;;;3.28;73.92;100286.91;5122772;27;45303;-76
2024/01/15 03:35:52;;;;;;;;;29.50;24.25;;;;;3.22;73.69;100295.81;5138963;27;46340;-77
2024/01/15 03:38:18;;;;;;;;;25.75;25.75;;;;;3.18;74.49;100279.28;5140699;27;45391;-76
2024/01/15 03:40:43;;;;;;;;;27.00;23.50;;;;;3.20;74.16;100276.63;5141234;27;45322;-81
2024/01/15 03:43:08;;;;;;;;;27.50;23.75;;;;;3.15;74.67;100265.41;5119026;27;46782;-79
2024/01/15 03:45:34;;;;;;;;;26.25;20.25;;;;;3.15;74.64;100278.53;5116715;27;46121;-77
2024/01/15 03:47:59;;;;;;;;;22.00;19.00;;;;;3.27;74.57;100270.28;5118385;27;47388;-77
2024/01/15 03:50:25;;;;;;;;;24.25;20.25;;;;;3.35;74.88;100280.53;5116981;27;45419;-83
2024/01/15 03:52:50;;;;;;;;;30.50;24.50;;;;;3.34;74.67;100268.31;5118026;27;45192;-78
2024/01/15 03:55:15;;;;;;;;;19.50;18.75;;;;;3.37;74.89;100266.44;5118402;27;45272;-80
2024/01/15 03:57:41;;;;;;;;;24.75;23.75;;;;;3.41;74.92;100264.59;5118355;27;45789;-78
2024/01/15 04:00:07;;;;;;;;;19.25;18.50;;;;;3.46;74.99;100263.50;5117217;27;57810;-83
2024/01/15 04:02:32;;;;;;;;;26.75;23.75;;;;;3.50;74.82;100246.72;5119751;27;45169;-82
2024/01/15 04:04:58;;;;;;;;;22.25;16.25;;;;;3.46;74.48;100233.75;5134243;27;45303;-78
2024/01/15 04:07:23;;;;;;;;;24.25;21.75;;;;;3.63;74.44;100236.66;5120188;27;45340;-79
2024/01/15 04:09:48;;;;;;;;;23.25;17.75;;;;;3.69;74.27;100231.22;5118704;27;45357;-81
2024/01/15 04:12:13;;;;;;;;;30.75;21.00;;;;;3.72;74.77;100230.25;5121902;27;45306;-84
2024/01/15 04:14:39;;;;;;;;;26.75;19.75;;;;;3.75;74.79;100215.22;5120997;27;61832;-82
2024/01/15 04:17:04;;;;;;;;;22.50;18.25;;;;;3.72;74.93;100215.31;5125437;27;45436;-81
2024/01/15 04:19:29;;;;;;;;;23.50;19.00;;;;;3.77;75.05;100221.28;5131150;27;45432;-76
2024/01/15 04:21:55;;;;;;;;;20.75;18.75;;;;;3.80;74.94;100220.34;5133388;27;46629;-77
2024/01/15 04:24:20;;;;;;;;;22.00;16.25;;;;;3.84;74.95;100211.41;5122060;27;45330;-76
2024/01/15 04:26:46;;;;;;;;;24.00;16.00;;;;;3.88;74.18;100212.16;5122583;27;45400;-80
2024/01/15 04:29:11;;;;;;;;;16.25;14.00;;;;;3.96;74.62;100220.66;5123534;27;45476;-78
2024/01/15 04:31:37;;;;;;;;;19.75;14.75;;;;;4.01;74.36;100209.03;5142389;27;45544;-82
2024/01/15 04:34:02;;;;;;;;;19.50;17.25;;;;;4.04;74.26;100203.69;5123703;27;45561;-81
2024/01/15 04:36:27;;;;;;;;;23.50;20.00;;;;;4.07;73.82;100193.06;5125053;27;45394;-81
2024/01/15 04:38:53;;;;;;;;;20.50;17.75;;;;;4.11;73.74;100199.06;5122028;27;45309;-80
2024/01/15 04:41:18;;;;;;;;;19.25;16.75;;;;;4.05;73.98;100183.50;5125739;27;45436;-78
2024/01/15 04:43:44;;;;;;;;;20.25;14.75;;;;;4.09;74.00;100201.75;5121007;27;45404;-78
2024/01/15 04:46:09;;;;;;;;;23.25;16.50;;;;;4.13;73.26;100195.47;5122724;27;45410;-83
2024/01/15 04:48:35;;;;;;;;;29.25;17.00;;;;;4.07;73.84;100193.06;5122660;27;45229;-79
2024/01/15 04:51:00;;;;;;;;;24.25;19.25;;;;;4.01;73.79;100192.41;5121984;27;45532;-80
2024/01/15 04:53:26;;;;;;;;;19.75;16.75;;;;;3.99;74.25;100189.81;5125150;27;46169;-84
2024/01/15 04:55:51;;;;;;;;;21.50;18.00;;;;;3.95;74.41;100175.06;5140043;27;45386;-83
2024/01/15 04:58:16;;;;;;;;;25.75;20.25;;;;;4.03;74.35;100180.91;5122647;27;45555;-82
2024/01/15 05:00:42;;;;;;;;;15.50;14.75;;;;;4.07;74.31;100177.28;5138345;27;45582;-80
2024/01/15 05:03:07;;;;;;;;;16.25;15.00;;;;;4.14;74.18;100186.66;5120699;27;45397;-80
2024/01/15 05:05:33;;;;;;;;;21.25;18.75;;;;;4.18;73.50;100190.03;5122996;27;45238;-79
2024/01/15 05:07:58;;;;;;;;;19.25;16.75;;;;;4.22;73.65;100188.16;5121646;27;45436;-81
2024/01/15 05:10:23;;;;;;;;;26.00;17.25;;;;;4.21;74.14;100186.44;5122046;27;45269;-81
2024/01/15 05:12:49;;;;;;;;;23.75;16.50;;;;;4.13;74.09;100174.41;5123531;27;46446;-78
2024/01/15 05:15:14;;;;;;;;;14.25;14.25;;;;;4.12;74.30;100174.47;5122004;27;53763;-79
2024/01/15 05:17:39;;;;;;;;;14.00;14.00;;;;;4.25;74.32;100193.31;5103850;27;45363;-80
2024/01/15 05:20:05;;;;;;;;;6.50;3.00;;;;;4.23;74.28;100182.84;5115569;27;45469;-78
2024/01/15 05:22:31;;;;;;;;;25.25;16.50;;;;;4.25;74.58;100181.00;5129164;27;46325;-83
2024/01/15 05:24:56;;;;;;;;;20.00;16.25;;;;;4.28;74.59;100180.03;5123257;27;45346;-78
2024/01/15 05:27:21;;;;;;;;;24.75;19.00;;;;;4.34;74.55;100185.06;5128952;27;45807;-83
2024/01/15 05:29:48;;;;;;;;;17.00;15.00;;;;;4.28;74.43;100166.84;5127488;27;45631;-84
2024/01/15 05:32:13;;;;;;;;;15.50;15.50;;;;;4.37;74.18;100184.94;5122772;27;45467;-77
2024/01/15 05:34:38;;;;;;;;;15.75;13.00;;;;;4.36;74.10;100188.50;5143109;27;58719;-76
2024/01/15 05:37:04;;;;;;;;;18.50;16.00;;;;;4.32;74.31;100158.81;5144472;27;45406;-85
2024/01/15 05:39:29;;;;;;;;;19.75;16.50;;;;;4.39;74.49;100168.19;5148291;27;44965;-84
2024/01/15 05:41:54;;;;;;;;;16.50;15.25;;;;;4.44;74.26;100170.66;5147286;27;45417;-83
2024/01/15 05:44:20;;;;;;;;;24.25;17.50;;;;;4.47;74.20;100174.94;5146949;27;45241;-85
2024/01/15 05:46:45;;;;;;;;;17.00;13.00;;;;;4.48;74.11;100164.34;5128894;27;47940;-86
2024/01/15 05:49:10;;;;;;;;;17.75;15.75;;;;;4.50;73.87;100165.16;5123910;27;45463;-86
2024/01/15 05:51:35;;;;;;;;;18.50;17.75;;;;;4.57;73.21;100161.38;5104301;27;47514;-87
2024/01/15 05:54:01;;;;;;;;;17.00;15.00;;;;;4.51;74.39;100166.88;5123348;27;45283;-90
2024/01/15 05:56:26;;;;;;;;;14.50;12.50;;;;;4.49;73.93;100152.91;5122499;27;45349;-82
2024/01/15 05:58:52;;;;;;;;;21.50;14.50;;;;;4.50;74.25;100159.88;5123875;27;45630;-83
2024/01/15 06:01:17;;;;;;;;;22.00;16.50;;;;;4.43;74.03;100159.28;5130783;27;45288;-85
2024/01/15 06:03:42;;;;;;;;;15.25;11.50;;;;;4.49;74.05;100163.44;5125234;27;45570;-84
2024/01/15 06:06:08;;;;;;;;;21.25;16.50;;;;;4.45;74.17;100161.84;5135351;27;45325;-85
2024/01/15 06:08:34;;;;;;;;;25.25;14.25;;;;;4.44;74.31;100168.88;5130416;27;45523;-86
2024/01/15 06:10:59;;;;;;;;;18.00;15.00;;;;;4.49;73.78;100167.84;5127085;27;45238;-85
2024/01/15 06:13:24;;;;;;;;;17.00;15.75;;;;;4.47;74.30;100167.91;5123457;27;45403;-83
2024/01/15 06:15:50;;;;;;;;;15.25;11.50;;;;;4.41;74.33;100161.06;5124943;27;56258;-82
2024/01/15 06:18:15;;;;;;;;;12.50;12.00;;;;;4.37;75.11;100159.47;5120819;27;45306;-79
2024/01/15 06:20:40;;;;;;;;;13.50;12.75;;;;;4.41;74.17;100163.72;5120988;27;62787;-78
2024/01/15 06:23:06;;;;;;;;;16.00;13.00;;;;;4.28;74.01;100148.44;5120553;27;45370;-79
2024/01/15 06:25:31;;;;;;;;;17.50;17.50;;;;;4.29;74.55;100148.38;5127636;27;45426;-82
2024/01/15 06:27:56;;;;;;;;;21.00;14.50;;;;;4.41;74.33;100170.75;5107100;27;45502;-80
2024/01/15 06:30:22;;;;;;;;;13.50;13.00;;;;;4.38;74.48;100169.09;5130471;27;45442;-78
2024/01/15 06:32:47;;;;;;;;;20.75;16.00;;;;;4.40;74.46;100169.03;5120373;27;45389;-79
2024/01/15 06:35:13;;;;;;;;;16.00;16.00;;;;;4.39;74.45;100162.06;5122219;27;45419;-81
2024/01/15 06:37:38;;;;;;;;;16.50;13.50;;;;;4.37;74.73;100171.78;5140345;27;45482;-79
2024/01/15 06:40:05;;;;;;;;;18.25;14.25;;;;;4.26;75.42;100172.19;5127748;27;60838;-76
2024/01/15 06:42:30;;;;;;;;;16.25;12.50;;;;;4.13;75.34;100150.72;5120132;27;45448;-79
2024/01/15 06:44:56;;;;;;;;;23.25;16.50;;;;;4.23;75.32;100160.91;5130747;27;45625;-77
2024/01/15 06:47:21;;;;;;;;;13.50;12.50;;;;;4.26;75.16;100160.78;5119454;27;45630;-78
2024/01/15 06:49:47;;;;;;;;;17.50;16.75;;;;;4.29;75.62;100165.94;5134127;27;46321;-78
2024/01/15 06:52:12;;;;;;;;;19.50;14.50;;;;;4.21;75.79;100152.22;5135144;27;45245;-78
2024/01/15 06:54:38;;;;;;;;;18.00;16.00;;;;;4.36;75.00;100175.34;5121640;27;45373;-80
2024/01/15 06:57:03;;;;;;;;;10.50;9.25;;;;;4.35;74.64;100176.25;5123947;27;45608;-80
2024/01/15 06:59:29;;;;;;;;;18.00;16.50;;;;;4.38;75.29;100177.00;5119080;27;45433;-75
2024/01/15 07:01:55;;;;;;;;;26.75;17.50;;;;;4.33;74.97;100170.19;5118342;27;56204;-78
2024/01/15 07:04:20;;;;;;;;;20.00;17.50;;;;;4.35;75.33;100181.53;5119020;27;45615;-76
2024/01/15 07:06:45;;;;;;;;;18.75;16.00;;;;;4.36;75.37;100180.59;5119194;27;45616;-76
2024/01/15 07:09:11;;;;;;;;;26.50;19.50;;;;;4.19;74.77;100148.78;5120443;27;45446;-83
2024/01/15 07:11:36;;;;;;;;;19.25;14.50;;;;;4.28;75.03;100170.34;5134021;27;45459;-84
2024/01/15 07:14:01;;;;;;;;;20.50;17.25;;;;;4.21;75.62;100162.75;5115455;27;45712;-81
2024/01/15 07:16:27;;;;;;;;;22.50;17.00;;;;;4.27;75.48;100162.50;5121101;27;45259;-80
2024/01/15 07:18:52;;;;;;;;;18.00;13.50;;;;;4.21;75.87;100152.22;5120293;27;60232;-78
2024/01/15 07:21:17;;;;;;;;;22.50;16.25;;;;;4.26;76.22;100179.22;5119523;27;45406;-82
2024/01/15 07:23:43;;;;;;;;;21.75;17.50;;;;;4.29;75.83;100171.19;5117610;27;45642;-82
2024/01/15 07:26:09;;;;;;;;;19.50;15.50;;;;;4.31;75.46;100179.94;5116622;27;45550;-79
2024/01/15 07:28:34;;;;;;;;;22.75;21.25;;;;;4.35;75.28;100195.53;5116997;27;46136;-82
2024/01/15 07:31:01;;;;;;;;;24.00;18.00;;;;;4.25;75.25;100180.13;5118269;27;45226;-83
2024/01/15 07:33:27;;;;;;;;;22.25;20.00;;;;;4.15;76.05;100171.72;5118371;27;45995;-84
2024/01/15 07:35:52;;;;;;;;;29.50;22.25;;;;;4.28;75.37;100196.66;5118499;27;45488;-80
2024/01/15 07:38:17;;;;;;;;;24.00;21.00;;;;;4.22;75.55;100194.28;5116753;27;47214;-82
2024/01/15 07:40:42;;;;;;;;;26.00;21.25;;;;;4.14;75.67;100186.66;5119001;27;45141;-81
2024/01/15 07:43:08;;;;;;;;;22.50;20.25;;;;;4.16;75.89;100197.13;5119470;27;45412;-82
2024/01/15 07:45:33;;;;;;;;;27.75;24.00;;;;;4.09;76.33;100196.50;5119476;27;45315;-82
2024/01/15 07:47:58;;;;;;;;;24.25;20.25;;;;;4.11;75.65;100199.91;5119104;27;46050;-87
2024/01/15 07:50:24;;;;;;;;;26.75;22.25;;;;;4.17;75.67;100197.97;5121307;27;57016;-84
2024/01/15 07:52:49;;;;;;;;;26.00;21.00;;;;;4.04;75.67;100187.06;5124885;27;45170;-88
2024/01/15 07:55:14;;;;;;;;;17.75;16.50;;;;;4.12;75.78;100217.44;5125328;27;58344;-90
2024/01/15 07:57:40;;;;;;;;;23.75;23.25;;;;;4.05;76.69;100215.09;5130194;27;45357;-82
2024/01/15 08:00:08;;;;;;;;;32.00;22.00;;;;;4.01;76.27;100221.34;5122374;27;45861;-88
2024/01/15 08:02:34;;;;;;;;;34.00;25.00;;;;;4.04;76.58;100208.97;5126252;27;45396;-83
2024/01/15 08:04:59;;;;;;;;;26.25;23.00;;;;;4.09;76.47;100216.69;5122635;27;45578;-81
2024/01/15 08:07:26;;;;;;;;;27.50;19.50;;;;;4.01;76.32;100208.19;5119335;27;46256;-84
2024/01/15 08:09:52;;;;;;;;;25.25;19.75;;;;;4.11;76.69;100220.97;5123039;27;45262;-79
2024/01/15 08:12:17;;;;;;;;;27.00;22.00;;;;;4.17;76.68;100229.56;5124344;27;45402;-80
2024/01/15 08:14:42;;;;;;;;;23.25;20.00;;;;;4.15;76.34;100225.22;5125608;27;44907;-81
2024/01/15 08:17:08;;;;;;;;;24.75;20.50;;;;;4.19;75.82;100228.63;5127837;27;45205;-81
2024/01/15 08:19:33;;;;;;;;;38.75;29.25;;;;;4.17;76.01;100225.19;5126924;27;45160;-79
2024/01/15 08:21:58;;;;;;;;;22.25;22.00;;;;;4.27;75.74;100236.22;5124482;27;50503;-81
2024/01/15 08:24:24;;;;;;;;;22.75;20.25;;;;;4.24;75.60;100221.41;5124536;27;44912;-78
2024/01/15 08:26:49;;;;;;;;;32.00;23.75;;;;;4.32;75.71;100235.16;5128642;27;45432;-81
2024/01/15 08:29:14;;;;;;;;;27.75;24.50;;;;;4.30;75.05;100230.88;5126132;27;46466;-80
2024/01/15 08:31:40;;;;;;;;;24.75;23.00;;;;;4.26;75.20;100205.53;5122214;27;45634;-80
2024/01/15 08:34:06;;;;;;;;;32.75;25.75;;;;;4.30;75.37;100233.50;5122422;27;45278;-84
2024/01/15 08:36:31;;;;;;;;;20.75;20.75;;;;;4.33;75.66;100226.34;5120605;27;45469;-81
2024/01/15 08:38:57;;;;;;;;;21.75;21.75;;;;;4.36;74.61;100236.75;5120944;27;45354;-78
2024/01/15 08:41:24;;;;;;;;;24.50;20.75;;;;;4.42;75.22;100246.19;5121079;27;45397;-84
2024/01/15 08:43:49;;;;;;;;;23.75;22.50;;;;;4.42;75.15;100261.97;5118973;27;45483;-79
2024/01/15 08:46:14;;;;;;;;;28.00;23.00;;;;;4.28;74.90;100256.34;5118352;27;45595;-80
2024/01/15 08:48:40;;;;;;;;;22.50;17.25;;;;;4.20;74.98;100255.78;5119857;27;47056;-80
2024/01/15 08:51:05;;;;;;;;;25.75;22.00;;;;;4.25;75.29;100259.97;5120099;27;45192;-88
2024/01/15 08:53:31;;;;;;;;;22.25;19.75;;;;;4.25;74.77;100274.91;5120361;27;45204;-86
2024/01/15 08:55:58;;;;;;;;;21.00;18.25;;;;;4.23;75.30;100271.47;5121166;27;45220;-85
2024/01/15 08:58:23;;;;;;;;;24.25;21.25;;;;;4.15;75.14;100269.94;5123289;27;45402;-87
2024/01/15 09:00:48;;;;;;;;;20.50;17.25;;;;;4.09;74.58;100275.44;5123687;27;45317;-84
2024/01/15 09:03:14;;;;;;;;;23.00;21.75;;;;;4.12;75.13;100275.31;5123604;27;45199;-86
2024/01/15 09:05:40;;;;;;;;;19.50;17.00;;;;;4.17;75.03;100277.81;5124111;27;45901;-84
2024/01/15 09:08:06;;;;;;;;;18.25;16.50;;;;;4.27;75.08;100288.84;5123886;27;45413;-87
2024/01/15 09:10:31;;;;;;;;;25.75;20.50;;;;;4.33;74.43;100300.06;5124551;27;45419;-89
2024/01/15 09:12:56;;;;;;;;;34.50;27.75;;;;;4.29;73.94;100300.19;5128557;27;45455;-87
2024/01/15 09:15:23;;;;;;;;;28.75;24.25;;;;;4.12;74.50;100312.16;5130312;27;45313;-84
2024/01/15 09:17:48;;;;;;;;;22.25;20.00;;;;;4.09;74.46;100312.28;5131398;27;45215;-82
2024/01/15 09:20:15;;;;;;;;;24.00;24.00;;;;;4.07;73.87;100313.25;5127391;27;45309;-91
2024/01/15 09:22:41;;;;;;;;;23.75;16.75;;;;;4.10;73.06;100311.38;5127256;27;45215;-91
2024/01/15 09:25:09;;;;;;;;;25.75;20.75;;;;;4.10;72.86;100308.72;5126103;27;45303;-88
2024/01/15 09:27:35;;;;;;;;;11.00;7.00;;;;;3.95;72.18;100288.22;5125598;27;45471;-84
2024/01/15 09:30:00;;;;;;;;;15.75;15.25;;;;;3.97;71.90;100296.91;5126329;27;45432;-88
2024/01/15 09:32:25;;;;;;;;;19.25;19.00;;;;;3.84;71.51;100291.19;5126833;27;49209;-88
2024/01/15 09:34:51;;;;;;;;;27.25;20.50;;;;;3.86;71.42;100309.56;5125619;27;65160;-86
2024/01/15 09:37:16;;;;;;;;;26.25;18.75;;;;;3.80;71.22;100305.38;5124268;27;45335;-80
2024/01/15 09:39:41;;;;;;;;;21.75;20.00;;;;;3.90;71.11;100307.66;5124131;27;58095;-81
2024/01/15 09:42:08;;;;;;;;;10.75;10.25;;;;;3.97;70.91;100322.34;5126079;27;45339;-85
2024/01/15 09:44:34;;;;;;;;;24.00;15.75;;;;;3.98;70.05;100298.63;5124916;27;45391;-84
2024/01/15 09:47:00;;;;;;;;;23.00;15.25;;;;;4.21;70.15;100315.41;5123427;27;45409;-82
2024/01/15 09:49:26;;;;;;;;;19.75;16.00;;;;;4.27;69.68;100307.28;5124543;27;45160;-81
2024/01/15 09:51:52;;;;;;;;;16.25;15.75;;;;;4.50;69.68;100315.25;5124704;27;45566;-82
2024/01/15 09:54:17;;;;;;;;;9.75;8.75;;;;;4.71;67.98;100319.75;5122829;27;47087;-85
2024/01/15 09:56:49;;;;;;;;;18.25;14.50;;;;;4.82;67.77;100322.00;5125771;27;45381;-84
2024/01/15 09:59:18;;;;;;;;;14.75;12.00;;;;;4.76;66.33;100327.47;5128052;27;45263;-87
2024/01/15 10:01:45;;;;;;;;;16.25;12.00;;;;;4.69;66.29;100334.75;5127369;27;45303;-88
2024/01/15 10:04:14;;;;;;;;;19.25;17.00;;;;;4.64;66.80;100322.66;5125798;27;45569;-83
2024/01/15 10:06:52;;;;;;;;;15.25;12.00;;;;;4.92;66.32;100333.03;5127155;27;45262;-89
2024/01/15 10:09:18;;;;;;;;;13.75;13.25;;;;;5.01;66.09;100330.94;5123834;27;45601;-92
2024/01/15 10:11:44;;;;;;;;;14.50;12.25;;;;;4.91;62.75;100328.69;5124783;27;45386;-81
2024/01/15 10:14:14;;;;;;;;;16.50;13.75;;;;;5.05;63.58;100342.22;5122699;27;45303;-79
2024/01/15 10:16:40;;;;;;;;;16.25;12.25;;;;;5.07;63.02;100345.63;5122089;27;45288;-83
2024/01/15 10:19:06;;;;;;;;;13.00;10.00;;;;;5.14;62.19;100338.38;5123284;27;45236;-81
2024/01/15 10:21:34;;;;;;;;;11.75;11.75;;;;;5.32;62.09;100341.16;5104035;27;45285;-81
2024/01/15 10:24:00;;;;;;;;;15.00;12.75;;;;;5.32;60.97;100316.56;5121628;27;45242;-81
2024/01/15 10:26:26;;;;;;;;;12.50;10.00;;;;;5.36;60.90;100309.44;5121205;27;45330;-80
2024/01/15 10:28:54;;;;;;;;;16.50;15.00;;;;;5.75;61.13;100333.34;5121904;27;45329;-82
2024/01/15 10:31:21;;;;;;;;;13.75;11.00;;;;;5.82;60.16;100337.44;5122420;27;45499;-79
2024/01/15 10:33:50;;;;;;;;;15.25;10.25;;;;;5.87;59.16;100328.44;5120706;27;45262;-81
2024/01/15 10:36:17;;;;;;;;;11.00;11.00;;;;;6.21;60.09;100338.47;5120297;27;45563;-80
2024/01/15 10:38:46;;;;;;;;;13.75;12.50;;;;;6.53;59.04;100333.63;5121590;27;45247;-83
2024/01/15 10:41:12;;;;;;;;;11.00;10.00;;;;;6.79;55.33;100333.31;5121821;27;45264;-84
2024/01/15 10:43:37;;;;;;;;;9.00;7.00;;;;;6.95;54.65;100333.50;5121446;27;45925;-85
2024/01/15 10:46:03;;;;;;;;;10.00;7.50;;;;;7.06;55.14;100331.22;5120726;27;45178;-86
2024/01/15 10:48:31;;;;;;;;;9.00;5.00;;;;;7.23;53.73;100334.88;5121716;27;45507;-84
2024/01/15 10:50:58;;;;;;;;;8.00;7.50;;;;;7.33;53.24;100329.09;5120521;27;45325;-83
2024/01/15 10:53:25;;;;;;;;;8.75;7.75;;;;;7.57;53.05;100335.00;5102562;27;47301;-80
2024/01/15 10:55:51;;;;;;;;;8.50;7.00;;;;;7.72;52.35;100340.50;5119761;27;45329;-82
2024/01/15 10:58:18;;;;;;;;;10.50;9.75;;;;;7.88;51.21;100330.88;5120890;27;45286;-82
2024/01/15 11:00:44;;;;;;;;;5.25;5.25;;;;;7.87;49.66;100334.44;5122981;27;45286;-81
2024/01/15 11:03:10;;;;;;;;;4.50;4.50;;;;;7.53;49.74;100338.72;5121540;27;45277;-81
2024/01/15 11:05:41;;;;;;;;;3.00;3.00;;;;;7.40;47.85;100346.38;5121814;27;45237;-81
2024/01/15 11:08:07;;;;;;;;;11.00;5.75;;;;;7.48;48.32;100340.72;5122671;27;45280;-81
2024/01/15 11:10:51;;;;;;;;;7.25;4.00;;;;;7.54;48.15;100329.84;5123097;27;45271;-85